Time,TemperatureF,DewpointF,PressureIn,WindDirection,WindDirectionDegrees,WindSpeedMPH,WindSpeedGustMPH,Humidity,HourlyPrecipIn,Conditions,Clouds,dailyrainin,SolarRadiationWatts/m^2,SoftwareType,DateUTC
2013-03-30 00:02:00,56.0,50.0,-100.00,NNE,20,5.0,10.0,81,0.00,,,0.00,0.000000,,2013-03-30 07:02:00,
2013-03-30 00:12:00,56.0,50.0,-100.00,NNE,20,5.0,10.0,81,0.00,,,0.00,0.000000,,2013-03-30 07:12:00,
2013-03-30 00:22:00,56.0,50.0,-100.00,NNE,20,5.0,10.0,81,0.00,,,0.00,0.000000,,2013-03-30 07:22:00,
2013-03-30 00:52:00,55.0,49.0,-100.00,SSW,213,6.0,10.0,81,0.00,,,0.00,0.000000,,2013-03-30 07:52:00,
2013-03-30 01:01:00,55.0,49.0,-100.00,SSW,213,6.0,10.0,81,0.00,,,0.00,0.000000,,2013-03-30 08:01:00,
2013-03-30 01:12:00,55.0,49.0,-100.00,SSW,213,6.0,10.0,81,0.00,,,0.00,0.000000,,2013-03-30 08:12:00,
2013-03-30 01:21:00,55.0,49.0,-100.00,SSW,213,6.0,10.0,81,0.00,,,0.00,0.000000,,2013-03-30 08:21:00,
2013-03-30 01:53:00,54.0,53.0,-100.00,NE,53,3.0,9.0,98,0.00,,,0.00,0.000000,,2013-03-30 08:53:00,
2013-03-30 02:02:00,54.0,53.0,-100.00,NE,53,3.0,9.0,98,0.00,,,0.00,0.000000,,2013-03-30 09:02:00,
2013-03-30 02:12:00,54.0,53.0,-100.00,NE,53,3.0,9.0,98,0.00,,,0.00,0.000000,,2013-03-30 09:12:00,
2013-03-30 02:22:00,54.0,53.0,-100.00,NE,53,3.0,9.0,98,0.00,,,0.00,0.000000,,2013-03-30 09:22:00,
2013-03-30 02:53:00,52.0,52.0,-100.00,ENE,68,4.0,6.0,100,0.00,,,0.00,0.000000,,2013-03-30 09:53:00,
2013-03-30 03:02:00,52.0,52.0,-100.00,ENE,68,4.0,6.0,100,0.00,,,0.00,0.000000,,2013-03-30 10:02:00,
2013-03-30 03:12:00,52.0,52.0,-100.00,ENE,68,4.0,6.0,100,0.00,,,0.00,0.000000,,2013-03-30 10:12:00,
2013-03-30 03:22:00,52.0,52.0,-100.00,ENE,68,4.0,6.0,100,0.00,,,0.00,0.000000,,2013-03-30 10:22:00,
2013-03-30 03:52:00,51.0,51.0,-100.00,South,172,4.0,9.0,100,0.00,,,0.00,0.000000,,2013-03-30 10:52:00,
2013-03-30 04:03:00,51.0,51.0,-100.00,South,172,4.0,9.0,100,0.00,,,0.00,0.000000,,2013-03-30 11:03:00,
2013-03-30 04:12:00,51.0,51.0,-100.00,South,172,4.0,9.0,100,0.00,,,0.00,0.000000,,2013-03-30 11:12:00,
2013-03-30 04:22:00,51.0,51.0,-100.00,South,172,4.0,9.0,100,0.00,,,0.00,0.000000,,2013-03-30 11:22:00,
2013-03-30 04:53:00,51.0,51.0,-100.00,NE,50,1.0,6.0,100,0.00,,,0.00,0.000000,,2013-03-30 11:53:00,
2013-03-30 05:02:00,51.0,51.0,-100.00,NE,50,1.0,6.0,100,0.00,,,0.00,0.000000,,2013-03-30 12:02:00,
2013-03-30 05:12:00,51.0,51.0,-100.00,NE,50,1.0,6.0,100,0.00,,,0.00,0.000000,,2013-03-30 12:12:00,
2013-03-30 05:22:00,51.0,51.0,-100.00,NE,50,1.0,6.0,100,0.00,,,0.00,0.000000,,2013-03-30 12:22:00,
2013-03-30 05:53:00,50.0,50.0,-100.00,SSE,159,3.0,6.0,100,0.00,,,0.00,0.000000,,2013-03-30 12:53:00,
2013-03-30 06:02:00,50.0,50.0,-100.00,SSE,159,3.0,6.0,100,0.00,,,0.00,0.000000,,2013-03-30 13:02:00,
2013-03-30 06:12:00,50.0,50.0,-100.00,SSE,159,3.0,6.0,100,0.00,,,0.00,0.000000,,2013-03-30 13:12:00,
2013-03-30 06:22:00,50.0,50.0,-100.00,SSE,159,3.0,6.0,100,0.00,,,0.00,0.000000,,2013-03-30 13:22:00,
2013-03-30 06:52:00,50.0,50.0,-100.00,SSW,201,3.0,6.0,100,0.00,,,0.00,0.000000,,2013-03-30 13:52:00,
2013-03-30 07:02:00,50.0,50.0,-100.00,SSW,201,3.0,6.0,100,0.00,,,0.00,0.000000,,2013-03-30 14:02:00,
2013-03-30 07:11:00,50.0,50.0,-100.00,SSW,201,3.0,6.0,100,0.00,,,0.00,0.000000,,2013-03-30 14:11:00,
2013-03-30 07:22:00,50.0,50.0,-100.00,SSW,201,3.0,6.0,100,0.00,,,0.00,0.000000,,2013-03-30 14:22:00,
2013-03-30 07:52:00,49.0,49.0,-100.00,South,186,4.0,7.0,100,0.00,,,-99.99,2.000000,,2013-03-30 14:52:00,
2013-03-30 08:02:00,49.0,49.0,-100.00,South,186,4.0,7.0,100,0.00,,,-99.99,2.000000,,2013-03-30 15:02:00,
2013-03-30 08:12:00,49.0,49.0,-100.00,South,186,4.0,7.0,100,0.00,,,-99.99,2.000000,,2013-03-30 15:12:00,
2013-03-30 08:22:00,49.0,49.0,-100.00,South,186,4.0,7.0,100,0.00,,,-99.99,2.000000,,2013-03-30 15:22:00,
2013-03-30 08:53:00,49.0,49.0,-100.00,SW,230,2.0,7.0,100,0.00,,,-99.99,32.000000,,2013-03-30 15:53:00,
2013-03-30 09:03:00,49.0,49.0,-100.00,SW,230,2.0,7.0,100,0.00,,,-99.99,32.000000,,2013-03-30 16:03:00,
2013-03-30 09:12:00,49.0,49.0,-100.00,SW,230,2.0,7.0,100,0.00,,,-99.99,32.000000,,2013-03-30 16:12:00,
2013-03-30 09:22:00,49.0,49.0,-100.00,SW,230,2.0,7.0,100,0.00,,,-99.99,32.000000,,2013-03-30 16:22:00,
2013-03-30 09:52:00,51.0,51.0,-100.00,ENE,78,3.0,5.0,100,0.00,,,0.00,99.000000,,2013-03-30 16:52:00,
2013-03-30 10:02:00,51.0,51.0,-100.00,ENE,78,3.0,5.0,100,0.00,,,0.00,99.000000,,2013-03-30 17:02:00,
2013-03-30 10:13:00,51.0,51.0,-100.00,ENE,78,3.0,5.0,100,0.00,,,0.00,99.000000,,2013-03-30 17:13:00,
2013-03-30 10:22:00,51.0,51.0,-100.00,ENE,78,3.0,5.0,100,0.00,,,0.00,99.000000,,2013-03-30 17:22:00,
2013-03-30 10:52:00,55.0,54.0,-100.00,SW,223,3.0,8.0,97,0.00,,,0.00,291.000000,,2013-03-30 17:52:00,
2013-03-30 11:02:00,55.0,54.0,-100.00,SW,223,3.0,8.0,97,0.00,,,0.00,291.000000,,2013-03-30 18:02:00,
2013-03-30 11:12:00,55.0,54.0,-100.00,SW,223,3.0,8.0,97,0.00,,,0.00,291.000000,,2013-03-30 18:12:00,
2013-03-30 11:22:00,55.0,54.0,-100.00,SW,223,3.0,8.0,97,0.00,,,0.00,291.000000,,2013-03-30 18:22:00,
2013-03-30 11:53:00,59.0,55.0,-100.00,SW,233,6.0,11.0,86,0.00,,,0.00,469.000000,,2013-03-30 18:53:00,
2013-03-30 12:02:00,59.0,55.0,-100.00,SW,233,6.0,11.0,86,0.00,,,0.00,469.000000,,2013-03-30 19:02:00,
2013-03-30 12:12:00,59.0,55.0,-100.00,SW,233,6.0,11.0,86,0.00,,,0.00,469.000000,,2013-03-30 19:12:00,
2013-03-30 12:22:00,59.0,55.0,-100.00,SW,233,6.0,11.0,86,0.00,,,0.00,469.000000,,2013-03-30 19:22:00,
2013-03-30 12:53:00,57.0,54.0,-100.00,SW,233,9.0,13.0,91,0.00,,,0.00,512.000000,,2013-03-30 19:53:00,
2013-03-30 13:02:00,57.0,54.0,-100.00,SW,233,9.0,13.0,91,0.00,,,0.00,512.000000,,2013-03-30 20:02:00,
2013-03-30 13:12:00,57.0,54.0,-100.00,SW,233,9.0,13.0,91,0.00,,,0.00,512.000000,,2013-03-30 20:12:00,
2013-03-30 13:21:00,57.0,54.0,-100.00,SW,233,9.0,13.0,91,0.00,,,0.00,512.000000,,2013-03-30 20:21:00,
2013-03-30 13:53:00,58.0,57.0,-100.00,SW,234,3.0,10.0,98,0.01,,,0.01,183.000000,,2013-03-30 20:53:00,
2013-03-30 14:02:00,58.0,57.0,-100.00,SW,234,3.0,10.0,98,0.01,,,0.01,183.000000,,2013-03-30 21:02:00,
2013-03-30 14:12:00,58.0,57.0,-100.00,SW,234,3.0,10.0,98,0.01,,,0.01,183.000000,,2013-03-30 21:12:00,
2013-03-30 14:22:00,58.0,57.0,-100.00,SW,234,3.0,10.0,98,0.01,,,0.01,183.000000,,2013-03-30 21:22:00,
2013-03-30 14:53:00,58.0,57.0,-100.00,West,269,6.0,9.0,98,0.01,,,0.02,240.000000,,2013-03-30 21:53:00,
2013-03-30 15:02:00,58.0,57.0,-100.00,West,269,6.0,9.0,98,0.01,,,0.02,240.000000,,2013-03-30 22:02:00,
2013-03-30 15:12:00,58.0,57.0,-100.00,West,269,6.0,9.0,98,0.01,,,0.02,240.000000,,2013-03-30 22:12:00,
2013-03-30 15:23:00,58.0,57.0,-100.00,West,269,6.0,9.0,98,0.01,,,0.02,240.000000,,2013-03-30 22:23:00,
2013-03-30 15:53:00,63.0,56.0,-100.00,SE,129,2.0,8.0,78,0.00,,,0.02,388.000000,,2013-03-30 22:53:00,
2013-03-30 16:02:00,63.0,56.0,-100.00,SE,129,2.0,8.0,78,0.00,,,0.02,388.000000,,2013-03-30 23:02:00,
2013-03-30 16:12:00,63.0,56.0,-100.00,SE,129,2.0,8.0,78,0.00,,,0.02,388.000000,,2013-03-30 23:12:00,
2013-03-30 16:22:00,63.0,56.0,-100.00,SE,129,2.0,8.0,78,0.00,,,0.02,388.000000,,2013-03-30 23:22:00,
2013-03-30 16:53:00,65.0,53.0,-100.00,West,274,4.0,8.0,64,0.00,,,0.02,284.000000,,2013-03-30 23:53:00,
2013-03-30 17:02:00,65.0,53.0,-100.00,West,274,4.0,8.0,64,0.00,,,0.02,284.000000,,2013-03-31 00:02:00,
2013-03-30 17:12:00,65.0,53.0,-100.00,West,274,4.0,8.0,64,0.00,,,0.02,284.000000,,2013-03-31 00:12:00,
2013-03-30 17:22:00,65.0,53.0,-100.00,West,274,4.0,8.0,64,0.00,,,0.02,284.000000,,2013-03-31 00:22:00,
2013-03-30 17:53:00,58.0,53.0,-100.00,WSW,251,8.0,21.0,83,0.00,,,0.02,283.000000,,2013-03-31 00:53:00,
2013-03-30 18:02:00,58.0,53.0,-100.00,WSW,251,8.0,21.0,83,0.00,,,0.02,283.000000,,2013-03-31 01:02:00,
2013-03-30 18:12:00,58.0,53.0,-100.00,WSW,251,8.0,21.0,83,0.00,,,0.02,283.000000,,2013-03-31 01:12:00,
2013-03-30 18:22:00,58.0,53.0,-100.00,WSW,251,8.0,21.0,83,0.00,,,0.02,283.000000,,2013-03-31 01:22:00,
2013-03-30 18:53:00,57.0,52.0,-100.00,SW,233,7.0,12.0,82,0.00,,,0.02,96.000000,,2013-03-31 01:53:00,
2013-03-30 19:02:00,57.0,52.0,-100.00,SW,233,7.0,12.0,82,0.00,,,0.02,96.000000,,2013-03-31 02:02:00,
2013-03-30 19:12:00,57.0,52.0,-100.00,SW,233,7.0,12.0,82,0.00,,,0.02,96.000000,,2013-03-31 02:12:00,
2013-03-30 19:22:00,57.0,52.0,-100.00,SW,233,7.0,12.0,82,0.00,,,0.02,96.000000,,2013-03-31 02:22:00,
2013-03-30 19:52:00,56.0,52.0,-100.00,NNW,341,3.0,8.0,85,0.00,,,0.02,22.000000,,2013-03-31 02:52:00,
2013-03-30 20:02:00,56.0,52.0,-100.00,NNW,341,3.0,8.0,85,0.00,,,0.02,22.000000,,2013-03-31 03:02:00,
2013-03-30 20:12:00,56.0,52.0,-100.00,NNW,341,3.0,8.0,85,0.00,,,0.02,22.000000,,2013-03-31 03:12:00,
2013-03-30 20:22:00,56.0,52.0,-100.00,NNW,341,3.0,8.0,85,0.00,,,0.02,22.000000,,2013-03-31 03:22:00,
2013-03-30 20:54:00,54.0,54.0,-100.00,NNW,344,3.0,7.0,100,0.05,,,0.07,0.000000,,2013-03-31 03:54:00,
2013-03-30 21:02:00,54.0,-99.9,-100.00,NNW,344,3.0,7.0,100,0.05,,,0.07,0.000000,,2013-03-31 04:02:00,
2013-03-30 21:12:00,54.0,54.0,-100.00,NNW,344,3.0,7.0,100,0.05,,,0.07,0.000000,,2013-03-31 04:12:00,
2013-03-30 21:22:00,54.0,54.0,-100.00,NNW,344,3.0,7.0,100,0.05,,,0.07,0.000000,,2013-03-31 04:22:00,
2013-03-30 21:52:00,54.0,54.0,-100.00,NW,310,4.0,8.0,100,0.01,,,0.08,0.000000,,2013-03-31 04:52:00,
2013-03-30 22:02:00,54.0,54.0,-100.00,NW,310,4.0,8.0,100,0.01,,,0.08,0.000000,,2013-03-31 05:02:00,
2013-03-30 22:12:00,54.0,54.0,-100.00,NW,310,4.0,8.0,100,0.01,,,0.08,0.000000,,2013-03-31 05:12:00,
2013-03-30 22:22:00,54.0,54.0,-100.00,NW,310,4.0,8.0,100,0.01,,,0.08,0.000000,,2013-03-31 05:22:00,
2013-03-30 22:53:00,53.0,53.0,-100.00,WNW,295,3.0,7.0,100,0.01,,,0.09,0.000000,,2013-03-31 05:53:00,
2013-03-30 23:01:00,53.0,53.0,-100.00,WNW,295,3.0,7.0,100,0.01,,,0.09,0.000000,,2013-03-31 06:01:00,
2013-03-30 23:11:00,53.0,53.0,-100.00,WNW,295,3.0,7.0,100,0.01,,,0.09,0.000000,,2013-03-31 06:11:00,
2013-03-30 23:21:00,53.0,53.0,-100.00,WNW,295,3.0,7.0,100,0.01,,,0.09,0.000000,,2013-03-31 06:21:00,
2013-03-30 23:52:00,53.0,53.0,-100.00,ENE,77,3.0,6.0,100,0.02,,,0.11,0.000000,,2013-03-31 06:52:00,